sensor_id;sensor_type;location;lat;lon;timestamp;temperature;humidity
15131;DHT22;7666;50.920;4.628;2024-03-23T00:53:14;8.00;99.90
15131;DHT22;7666;50.920;4.628;2024-03-23T00:56:03;8.00;99.90
15131;DHT22;7666;50.920;4.628;2024-03-23T00:58:49;8.10;99.90
15131;DHT22;7666;50.920;4.628;2024-03-23T01:01:35;8.20;99.90
15131;DHT22;7666;50.920;4.628;2024-03-23T01:04:21;8.20;99.90
15131;DHT22;7666;50.920;4.628;2024-03-23T01:07:07;8.30;99.90
15131;DHT22;7666;50.920;4.628;2024-03-23T01:09:53;8.20;99.90
15131;DHT22;7666;50.920;4.628;2024-03-23T01:12:39;8.20;99.90
15131;DHT22;7666;50.920;4.628;2024-03-23T01:15:25;8.20;99.90
15131;DHT22;7666;50.920;4.628;2024-03-23T01:18:11;8.30;99.90
15131;DHT22;7666;50.920;4.628;2024-03-23T01:20:57;8.30;99.90
15131;DHT22;7666;50.920;4.628;2024-03-23T01:23:43;8.20;99.90
15131;DHT22;7666;50.920;4.628;2024-03-23T01:26:29;8.20;99.90
15131;DHT22;7666;50.920;4.628;2024-03-23T01:29:15;8.20;99.90
15131;DHT22;7666;50.920;4.628;2024-03-23T01:32:00;8.20;99.90
15131;DHT22;7666;50.920;4.628;2024-03-23T01:34:46;8.10;99.90
15131;DHT22;7666;50.920;4.628;2024-03-23T01:37:32;8.10;99.90
15131;DHT22;7666;50.920;4.628;2024-03-23T01:40:19;8.00;99.90
15131;DHT22;7666;50.920;4.628;2024-03-23T01:43:07;8.00;99.90
15131;DHT22;7666;50.920;4.628;2024-03-23T01:45:56;8.00;99.90
15131;DHT22;7666;50.920;4.628;2024-03-23T01:48:42;8.00;99.90
15131;DHT22;7666;50.920;4.628;2024-03-23T01:51:29;8.00;99.90
15131;DHT22;7666;50.920;4.628;2024-03-23T01:54:15;8.00;99.90
15131;DHT22;7666;50.920;4.628;2024-03-23T01:57:01;8.00;99.90
15131;DHT22;7666;50.920;4.628;2024-03-23T01:59:48;7.90;99.90
15131;DHT22;7666;50.920;4.628;2024-03-23T02:02:34;7.90;99.90
15131;DHT22;7666;50.920;4.628;2024-03-23T02:05:20;7.80;99.90
15131;DHT22;7666;50.920;4.628;2024-03-23T02:08:06;7.80;99.90
15131;DHT22;7666;50.920;4.628;2024-03-23T02:10:52;7.80;99.90
15131;DHT22;7666;50.920;4.628;2024-03-23T02:13:38;7.70;99.90
15131;DHT22;7666;50.920;4.628;2024-03-23T02:16:24;7.70;99.90
15131;DHT22;7666;50.920;4.628;2024-03-23T02:19:10;7.70;99.90
15131;DHT22;7666;50.920;4.628;2024-03-23T02:21:56;7.60;99.90
15131;DHT22;7666;50.920;4.628;2024-03-23T02:24:42;7.60;99.90
15131;DHT22;7666;50.920;4.628;2024-03-23T02:27:28;7.60;99.90
15131;DHT22;7666;50.920;4.628;2024-03-23T02:30:14;7.60;99.90
15131;DHT22;7666;50.920;4.628;2024-03-23T02:33:00;7.60;99.90
15131;DHT22;7666;50.920;4.628;2024-03-23T02:35:47;7.60;99.90
15131;DHT22;7666;50.920;4.628;2024-03-23T02:38:33;7.60;99.90
15131;DHT22;7666;50.920;4.628;2024-03-23T02:41:19;7.60;99.90
15131;DHT22;7666;50.920;4.628;2024-03-23T02:44:08;7.60;99.90
15131;DHT22;7666;50.920;4.628;2024-03-23T02:46:57;7.70;99.90
15131;DHT22;7666;50.920;4.628;2024-03-23T02:49:43;7.70;99.90
15131;DHT22;7666;50.920;4.628;2024-03-23T02:52:29;7.70;99.90
15131;DHT22;7666;50.920;4.628;2024-03-23T02:55:15;7.60;99.90
15131;DHT22;7666;50.920;4.628;2024-03-23T02:58:01;7.60;99.90
15131;DHT22;7666;50.920;4.628;2024-03-23T03:00:47;7.60;99.90
15131;DHT22;7666;50.920;4.628;2024-03-23T03:03:33;7.60;99.90
15131;DHT22;7666;50.920;4.628;2024-03-23T03:06:26;7.60;99.90
15131;DHT22;7666;50.920;4.628;2024-03-23T03:09:12;7.60;99.90
15131;DHT22;7666;50.920;4.628;2024-03-23T03:11:58;7.70;99.90
15131;DHT22;7666;50.920;4.628;2024-03-23T03:14:44;7.70;99.90
15131;DHT22;7666;50.920;4.628;2024-03-23T03:17:30;7.70;99.90
15131;DHT22;7666;50.920;4.628;2024-03-23T03:20:16;7.70;99.90
15131;DHT22;7666;50.920;4.628;2024-03-23T03:23:03;7.70;99.90
15131;DHT22;7666;50.920;4.628;2024-03-23T03:25:50;7.70;99.90
15131;DHT22;7666;50.920;4.628;2024-03-23T03:28:36;7.70;99.90
15131;DHT22;7666;50.920;4.628;2024-03-23T03:31:22;7.60;99.90
15131;DHT22;7666;50.920;4.628;2024-03-23T03:34:08;7.60;99.90
15131;DHT22;7666;50.920;4.628;2024-03-23T03:36:54;7.60;99.90
15131;DHT22;7666;50.920;4.628;2024-03-23T03:39:40;7.60;99.90
15131;DHT22;7666;50.920;4.628;2024-03-23T03:42:26;7.60;99.90
15131;DHT22;7666;50.920;4.628;2024-03-23T03:45:12;7.60;99.90
15131;DHT22;7666;50.920;4.628;2024-03-23T03:47:58;7.60;99.90
15131;DHT22;7666;50.920;4.628;2024-03-23T03:50:45;7.60;99.90
15131;DHT22;7666;50.920;4.628;2024-03-23T03:53:31;7.60;99.90
15131;DHT22;7666;50.920;4.628;2024-03-23T03:56:17;7.60;99.90
15131;DHT22;7666;50.920;4.628;2024-03-23T03:59:03;7.60;99.90
15131;DHT22;7666;50.920;4.628;2024-03-23T04:01:49;7.60;99.90
15131;DHT22;7666;50.920;4.628;2024-03-23T04:04:34;7.60;99.90
15131;DHT22;7666;50.920;4.628;2024-03-23T04:07:20;7.50;99.90
15131;DHT22;7666;50.920;4.628;2024-03-23T04:10:08;7.50;99.90
15131;DHT22;7666;50.920;4.628;2024-03-23T04:12:55;7.50;99.90
15131;DHT22;7666;50.920;4.628;2024-03-23T04:15:41;7.50;99.90
15131;DHT22;7666;50.920;4.628;2024-03-23T04:18:27;7.50;99.90
15131;DHT22;7666;50.920;4.628;2024-03-23T04:21:12;7.50;99.90
15131;DHT22;7666;50.920;4.628;2024-03-23T04:23:58;7.50;99.90
15131;DHT22;7666;50.920;4.628;2024-03-23T04:26:44;7.50;99.90
15131;DHT22;7666;50.920;4.628;2024-03-23T04:29:31;7.50;99.90
15131;DHT22;7666;50.920;4.628;2024-03-23T04:32:18;7.40;99.90
15131;DHT22;7666;50.920;4.628;2024-03-23T04:35:04;7.40;99.90
15131;DHT22;7666;50.920;4.628;2024-03-23T04:37:55;7.40;99.90
15131;DHT22;7666;50.920;4.628;2024-03-23T04:40:57;7.40;99.90
15131;DHT22;7666;50.920;4.628;2024-03-23T04:43:43;7.40;99.90
15131;DHT22;7666;50.920;4.628;2024-03-23T04:46:29;7.40;99.90
15131;DHT22;7666;50.920;4.628;2024-03-23T04:49:15;7.40;99.90
15131;DHT22;7666;50.920;4.628;2024-03-23T04:52:02;7.40;99.90
15131;DHT22;7666;50.920;4.628;2024-03-23T04:54:48;7.40;99.90
15131;DHT22;7666;50.920;4.628;2024-03-23T04:57:34;7.40;99.90
15131;DHT22;7666;50.920;4.628;2024-03-23T05:00:19;7.40;99.90
15131;DHT22;7666;50.920;4.628;2024-03-23T05:03:05;7.40;99.90
15131;DHT22;7666;50.920;4.628;2024-03-23T05:05:51;7.40;99.90
15131;DHT22;7666;50.920;4.628;2024-03-23T05:08:37;7.40;99.90
15131;DHT22;7666;50.920;4.628;2024-03-23T05:11:23;7.40;99.90
15131;DHT22;7666;50.920;4.628;2024-03-23T05:14:09;7.30;99.90
15131;DHT22;7666;50.920;4.628;2024-03-23T05:16:55;7.30;99.90
15131;DHT22;7666;50.920;4.628;2024-03-23T05:19:41;7.30;99.90
15131;DHT22;7666;50.920;4.628;2024-03-23T05:22:27;7.20;99.90
15131;DHT22;7666;50.920;4.628;2024-03-23T05:25:13;7.20;99.90
15131;DHT22;7666;50.920;4.628;2024-03-23T05:27:59;7.20;99.90
15131;DHT22;7666;50.920;4.628;2024-03-23T05:30:50;7.20;99.90
15131;DHT22;7666;50.920;4.628;2024-03-23T05:33:37;7.20;99.90
15131;DHT22;7666;50.920;4.628;2024-03-23T05:36:24;7.10;99.90
15131;DHT22;7666;50.920;4.628;2024-03-23T05:39:10;7.10;99.90
15131;DHT22;7666;50.920;4.628;2024-03-23T05:41:56;7.10;99.90
15131;DHT22;7666;50.920;4.628;2024-03-23T05:44:43;7.00;99.90
15131;DHT22;7666;50.920;4.628;2024-03-23T05:47:29;7.00;99.90
15131;DHT22;7666;50.920;4.628;2024-03-23T05:50:15;6.90;99.90
15131;DHT22;7666;50.920;4.628;2024-03-23T05:53:01;6.90;99.90
15131;DHT22;7666;50.920;4.628;2024-03-23T05:55:48;6.90;99.90
15131;DHT22;7666;50.920;4.628;2024-03-23T05:58:34;6.90;99.90
15131;DHT22;7666;50.920;4.628;2024-03-23T06:01:20;7.00;99.90
15131;DHT22;7666;50.920;4.628;2024-03-23T06:04:05;7.10;99.90
15131;DHT22;7666;50.920;4.628;2024-03-23T06:06:52;7.20;99.90
15131;DHT22;7666;50.920;4.628;2024-03-23T06:09:38;7.30;99.90
15131;DHT22;7666;50.920;4.628;2024-03-23T06:12:24;7.40;99.90
15131;DHT22;7666;50.920;4.628;2024-03-23T06:15:10;7.70;99.90
15131;DHT22;7666;50.920;4.628;2024-03-23T06:17:56;8.20;99.90
15131;DHT22;7666;50.920;4.628;2024-03-23T06:20:42;8.60;99.90
15131;DHT22;7666;50.920;4.628;2024-03-23T06:23:28;8.70;99.90
15131;DHT22;7666;50.920;4.628;2024-03-23T06:26:13;8.50;99.90
15131;DHT22;7666;50.920;4.628;2024-03-23T06:28:59;8.40;99.90
15131;DHT22;7666;50.920;4.628;2024-03-23T06:31:55;8.10;99.90
15131;DHT22;7666;50.920;4.628;2024-03-23T06:34:41;8.00;99.90
15131;DHT22;7666;50.920;4.628;2024-03-23T06:37:27;7.80;99.90
15131;DHT22;7666;50.920;4.628;2024-03-23T06:40:14;7.80;99.90
15131;DHT22;7666;50.920;4.628;2024-03-23T06:43:00;7.70;99.90
15131;DHT22;7666;50.920;4.628;2024-03-23T06:45:53;7.70;99.90
15131;DHT22;7666;50.920;4.628;2024-03-23T06:48:39;7.70;99.90
15131;DHT22;7666;50.920;4.628;2024-03-23T06:51:25;7.80;99.90
15131;DHT22;7666;50.920;4.628;2024-03-23T06:54:11;7.80;99.90
15131;DHT22;7666;50.920;4.628;2024-03-23T06:56:57;7.90;99.90
15131;DHT22;7666;50.920;4.628;2024-03-23T06:59:43;7.80;99.90
15131;DHT22;7666;50.920;4.628;2024-03-23T07:02:29;7.80;99.90
15131;DHT22;7666;50.920;4.628;2024-03-23T07:05:15;7.90;99.90
15131;DHT22;7666;50.920;4.628;2024-03-23T07:08:01;7.90;99.90
15131;DHT22;7666;50.920;4.628;2024-03-23T07:10:47;8.00;99.90
15131;DHT22;7666;50.920;4.628;2024-03-23T07:13:33;8.00;99.90
15131;DHT22;7666;50.920;4.628;2024-03-23T07:16:18;8.10;99.90
15131;DHT22;7666;50.920;4.628;2024-03-23T07:19:04;8.60;99.90
15131;DHT22;7666;50.920;4.628;2024-03-23T07:21:50;9.70;99.90
15131;DHT22;7666;50.920;4.628;2024-03-23T07:24:36;10.30;99.90
15131;DHT22;7666;50.920;4.628;2024-03-23T07:27:25;9.60;99.90
15131;DHT22;7666;50.920;4.628;2024-03-23T07:30:11;9.10;99.90
15131;DHT22;7666;50.920;4.628;2024-03-23T07:32:57;9.10;99.90
15131;DHT22;7666;50.920;4.628;2024-03-23T07:35:43;9.30;99.90
15131;DHT22;7666;50.920;4.628;2024-03-23T07:38:30;9.00;99.90
15131;DHT22;7666;50.920;4.628;2024-03-23T07:41:17;9.00;99.90
15131;DHT22;7666;50.920;4.628;2024-03-23T07:44:04;9.50;99.90
15131;DHT22;7666;50.920;4.628;2024-03-23T07:46:50;10.20;99.90
15131;DHT22;7666;50.920;4.628;2024-03-23T07:49:35;10.90;99.90
15131;DHT22;7666;50.920;4.628;2024-03-23T07:52:21;11.20;99.90
15131;DHT22;7666;50.920;4.628;2024-03-23T07:55:07;11.60;99.90
15131;DHT22;7666;50.920;4.628;2024-03-23T07:57:54;11.50;99.90
15131;DHT22;7666;50.920;4.628;2024-03-23T08:00:40;11.20;99.90
15131;DHT22;7666;50.920;4.628;2024-03-23T08:03:26;11.10;99.90
15131;DHT22;7666;50.920;4.628;2024-03-23T08:06:16;10.90;99.90
15131;DHT22;7666;50.920;4.628;2024-03-23T08:09:02;10.80;99.90
15131;DHT22;7666;50.920;4.628;2024-03-23T08:11:48;10.60;99.90
15131;DHT22;7666;50.920;4.628;2024-03-23T08:14:34;10.60;99.90
15131;DHT22;7666;50.920;4.628;2024-03-23T08:17:20;10.70;99.90
15131;DHT22;7666;50.920;4.628;2024-03-23T08:20:07;10.70;99.90
15131;DHT22;7666;50.920;4.628;2024-03-23T08:22:53;10.80;99.90
15131;DHT22;7666;50.920;4.628;2024-03-23T08:25:39;10.60;99.90
15131;DHT22;7666;50.920;4.628;2024-03-23T08:28:26;10.30;99.90
15131;DHT22;7666;50.920;4.628;2024-03-23T08:31:13;10.10;99.90
15131;DHT22;7666;50.920;4.628;2024-03-23T08:34:00;10.00;99.90
15131;DHT22;7666;50.920;4.628;2024-03-23T08:36:46;10.30;99.90
15131;DHT22;7666;50.920;4.628;2024-03-23T08:39:32;10.10;99.90
15131;DHT22;7666;50.920;4.628;2024-03-23T08:42:18;10.10;99.90
15131;DHT22;7666;50.920;4.628;2024-03-23T08:45:04;10.00;99.90
15131;DHT22;7666;50.920;4.628;2024-03-23T08:47:50;9.90;99.90
15131;DHT22;7666;50.920;4.628;2024-03-23T08:50:36;9.60;99.90
15131;DHT22;7666;50.920;4.628;2024-03-23T08:53:22;9.50;99.90
15131;DHT22;7666;50.920;4.628;2024-03-23T08:56:09;9.60;99.90
15131;DHT22;7666;50.920;4.628;2024-03-23T08:58:55;9.70;99.90
15131;DHT22;7666;50.920;4.628;2024-03-23T09:01:41;9.80;99.90
15131;DHT22;7666;50.920;4.628;2024-03-23T09:04:27;9.70;99.90
15131;DHT22;7666;50.920;4.628;2024-03-23T09:07:13;9.60;99.90
15131;DHT22;7666;50.920;4.628;2024-03-23T09:09:58;9.70;99.90
15131;DHT22;7666;50.920;4.628;2024-03-23T09:12:45;10.10;99.90
15131;DHT22;7666;50.920;4.628;2024-03-23T09:15:32;10.10;99.90
15131;DHT22;7666;50.920;4.628;2024-03-23T09:18:18;10.00;99.90
15131;DHT22;7666;50.920;4.628;2024-03-23T09:21:06;10.20;99.90
15131;DHT22;7666;50.920;4.628;2024-03-23T09:23:56;10.40;99.90
15131;DHT22;7666;50.920;4.628;2024-03-23T09:26:42;10.40;99.90
15131;DHT22;7666;50.920;4.628;2024-03-23T09:29:28;10.60;99.90
15131;DHT22;7666;50.920;4.628;2024-03-23T09:32:14;10.60;99.90
15131;DHT22;7666;50.920;4.628;2024-03-23T09:35:00;10.50;99.90
15131;DHT22;7666;50.920;4.628;2024-03-23T09:37:46;10.40;99.90
15131;DHT22;7666;50.920;4.628;2024-03-23T09:40:32;10.50;99.90
15131;DHT22;7666;50.920;4.628;2024-03-23T09:43:18;10.70;99.90
15131;DHT22;7666;50.920;4.628;2024-03-23T09:46:04;10.60;99.90
15131;DHT22;7666;50.920;4.628;2024-03-23T09:48:51;10.40;99.90
15131;DHT22;7666;50.920;4.628;2024-03-23T09:51:37;10.50;99.90
15131;DHT22;7666;50.920;4.628;2024-03-23T09:54:24;10.80;99.90
15131;DHT22;7666;50.920;4.628;2024-03-23T09:57:13;10.90;99.90
15131;DHT22;7666;50.920;4.628;2024-03-23T09:59:59;11.30;99.90
15131;DHT22;7666;50.920;4.628;2024-03-23T10:02:45;11.20;99.90
15131;DHT22;7666;50.920;4.628;2024-03-23T10:05:31;10.90;99.90
15131;DHT22;7666;50.920;4.628;2024-03-23T10:08:19;10.80;99.90
15131;DHT22;7666;50.920;4.628;2024-03-23T10:11:13;10.90;99.90
15131;DHT22;7666;50.920;4.628;2024-03-23T10:14:01;11.10;99.90
15131;DHT22;7666;50.920;4.628;2024-03-23T10:16:47;11.10;99.90
15131;DHT22;7666;50.920;4.628;2024-03-23T10:19:33;11.10;99.90
15131;DHT22;7666;50.920;4.628;2024-03-23T10:25:09;11.00;99.90
15131;DHT22;7666;50.920;4.628;2024-03-23T10:28:00;10.90;99.90
15131;DHT22;7666;50.920;4.628;2024-03-23T10:30:47;11.00;99.90
15131;DHT22;7666;50.920;4.628;2024-03-23T10:33:33;10.90;99.90
15131;DHT22;7666;50.920;4.628;2024-03-23T10:36:21;10.70;99.90
15131;DHT22;7666;50.920;4.628;2024-03-23T10:39:08;10.70;99.90
15131;DHT22;7666;50.920;4.628;2024-03-23T10:41:56;11.00;99.90
15131;DHT22;7666;50.920;4.628;2024-03-23T10:44:42;11.10;99.90
15131;DHT22;7666;50.920;4.628;2024-03-23T10:47:28;10.90;99.90
15131;DHT22;7666;50.920;4.628;2024-03-23T10:50:14;11.20;99.90
15131;DHT22;7666;50.920;4.628;2024-03-23T10:53:01;11.40;99.90
15131;DHT22;7666;50.920;4.628;2024-03-23T10:55:47;11.20;99.90
15131;DHT22;7666;50.920;4.628;2024-03-23T10:58:42;10.70;99.90
15131;DHT22;7666;50.920;4.628;2024-03-23T11:01:28;10.30;99.90
15131;DHT22;7666;50.920;4.628;2024-03-23T11:04:32;10.40;99.90
15131;DHT22;7666;50.920;4.628;2024-03-23T11:07:31;10.90;99.90
15131;DHT22;7666;50.920;4.628;2024-03-23T11:10:30;11.10;99.90
15131;DHT22;7666;50.920;4.628;2024-03-23T11:13:23;11.00;99.90
15131;DHT22;7666;50.920;4.628;2024-03-23T11:16:29;11.00;99.90
15131;DHT22;7666;50.920;4.628;2024-03-23T11:19:34;10.00;99.90
15131;DHT22;7666;50.920;4.628;2024-03-23T11:22:40;9.50;99.90
15131;DHT22;7666;50.920;4.628;2024-03-23T11:25:27;9.20;99.90
15131;DHT22;7666;50.920;4.628;2024-03-23T11:28:13;9.30;99.90
15131;DHT22;7666;50.920;4.628;2024-03-23T11:31:00;9.90;99.90
15131;DHT22;7666;50.920;4.628;2024-03-23T11:33:46;10.60;99.90
15131;DHT22;7666;50.920;4.628;2024-03-23T11:36:32;10.90;99.90
15131;DHT22;7666;50.920;4.628;2024-03-23T11:39:19;11.30;99.90
15131;DHT22;7666;50.920;4.628;2024-03-23T11:42:06;11.10;99.90
15131;DHT22;7666;50.920;4.628;2024-03-23T11:44:52;11.10;99.90
15131;DHT22;7666;50.920;4.628;2024-03-23T11:47:38;10.70;99.90
15131;DHT22;7666;50.920;4.628;2024-03-23T11:50:24;10.30;99.90
15131;DHT22;7666;50.920;4.628;2024-03-23T11:53:14;10.10;99.90
15131;DHT22;7666;50.920;4.628;2024-03-23T11:56:00;10.10;99.90
15131;DHT22;7666;50.920;4.628;2024-03-23T11:58:49;10.10;99.90
15131;DHT22;7666;50.920;4.628;2024-03-23T12:01:37;10.30;99.90
15131;DHT22;7666;50.920;4.628;2024-03-23T12:04:27;10.50;99.90
15131;DHT22;7666;50.920;4.628;2024-03-23T12:10:04;10.80;99.90
15131;DHT22;7666;50.920;4.628;2024-03-23T12:13:01;11.00;99.90
15131;DHT22;7666;50.920;4.628;2024-03-23T12:15:49;11.30;99.90
15131;DHT22;7666;50.920;4.628;2024-03-23T12:18:36;11.50;99.90
15131;DHT22;7666;50.920;4.628;2024-03-23T12:21:22;12.10;99.90
15131;DHT22;7666;50.920;4.628;2024-03-23T12:24:08;12.30;99.90
15131;DHT22;7666;50.920;4.628;2024-03-23T12:26:54;12.00;99.90
15131;DHT22;7666;50.920;4.628;2024-03-23T12:29:41;12.30;99.90
15131;DHT22;7666;50.920;4.628;2024-03-23T12:32:29;12.70;99.90
15131;DHT22;7666;50.920;4.628;2024-03-23T12:35:15;12.60;99.90
15131;DHT22;7666;50.920;4.628;2024-03-23T12:38:01;12.20;99.90
15131;DHT22;7666;50.920;4.628;2024-03-23T12:40:53;11.70;99.90
15131;DHT22;7666;50.920;4.628;2024-03-23T12:43:39;11.50;99.90
15131;DHT22;7666;50.920;4.628;2024-03-23T12:46:25;11.30;99.90
15131;DHT22;7666;50.920;4.628;2024-03-23T12:49:11;11.50;99.90
15131;DHT22;7666;50.920;4.628;2024-03-23T12:51:57;11.80;99.90
15131;DHT22;7666;50.920;4.628;2024-03-23T12:54:43;11.60;99.90
15131;DHT22;7666;50.920;4.628;2024-03-23T12:57:29;11.60;99.90
15131;DHT22;7666;50.920;4.628;2024-03-23T13:00:15;11.90;99.90
15131;DHT22;7666;50.920;4.628;2024-03-23T13:03:02;12.00;99.90
15131;DHT22;7666;50.920;4.628;2024-03-23T13:05:53;12.20;99.90
15131;DHT22;7666;50.920;4.628;2024-03-23T13:08:39;12.30;99.90
15131;DHT22;7666;50.920;4.628;2024-03-23T13:11:26;12.40;99.90
15131;DHT22;7666;50.920;4.628;2024-03-23T13:14:12;12.20;99.90
15131;DHT22;7666;50.920;4.628;2024-03-23T13:17:00;11.50;99.90
15131;DHT22;7666;50.920;4.628;2024-03-23T13:19:47;11.30;99.90
15131;DHT22;7666;50.920;4.628;2024-03-23T13:22:33;11.40;99.90
15131;DHT22;7666;50.920;4.628;2024-03-23T13:25:19;11.30;99.90
15131;DHT22;7666;50.920;4.628;2024-03-23T13:28:06;11.20;99.90
15131;DHT22;7666;50.920;4.628;2024-03-23T13:30:52;11.10;99.90
15131;DHT22;7666;50.920;4.628;2024-03-23T13:33:38;10.80;99.90
15131;DHT22;7666;50.920;4.628;2024-03-23T13:36:25;10.70;99.90
15131;DHT22;7666;50.920;4.628;2024-03-23T13:39:12;10.50;99.90
15131;DHT22;7666;50.920;4.628;2024-03-23T13:41:58;10.30;99.90
15131;DHT22;7666;50.920;4.628;2024-03-23T13:44:44;10.20;99.90
15131;DHT22;7666;50.920;4.628;2024-03-23T13:47:29;10.00;99.90
15131;DHT22;7666;50.920;4.628;2024-03-23T13:50:16;10.00;99.90
15131;DHT22;7666;50.920;4.628;2024-03-23T13:53:02;10.10;99.90
15131;DHT22;7666;50.920;4.628;2024-03-23T13:55:48;10.30;99.90
15131;DHT22;7666;50.920;4.628;2024-03-23T13:58:34;10.60;99.90
15131;DHT22;7666;50.920;4.628;2024-03-23T14:01:20;10.60;99.90
15131;DHT22;7666;50.920;4.628;2024-03-23T14:04:06;10.50;99.90
15131;DHT22;7666;50.920;4.628;2024-03-23T14:06:52;10.50;99.90
15131;DHT22;7666;50.920;4.628;2024-03-23T14:09:38;10.30;99.90
15131;DHT22;7666;50.920;4.628;2024-03-23T14:12:24;10.30;99.90
15131;DHT22;7666;50.920;4.628;2024-03-23T14:15:11;10.00;99.90
15131;DHT22;7666;50.920;4.628;2024-03-23T14:17:58;9.80;99.90
15131;DHT22;7666;50.920;4.628;2024-03-23T14:20:44;9.30;99.90
15131;DHT22;7666;50.920;4.628;2024-03-23T14:23:31;9.00;99.90
15131;DHT22;7666;50.920;4.628;2024-03-23T14:26:20;8.80;99.90
15131;DHT22;7666;50.920;4.628;2024-03-23T14:29:06;8.90;99.90
15131;DHT22;7666;50.920;4.628;2024-03-23T14:31:52;8.90;99.90
15131;DHT22;7666;50.920;4.628;2024-03-23T14:34:38;9.10;99.90
15131;DHT22;7666;50.920;4.628;2024-03-23T14:37:24;9.40;99.90
15131;DHT22;7666;50.920;4.628;2024-03-23T14:40:10;9.70;99.90
15131;DHT22;7666;50.920;4.628;2024-03-23T14:42:58;10.00;99.90
15131;DHT22;7666;50.920;4.628;2024-03-23T14:46:11;10.40;99.90
15131;DHT22;7666;50.920;4.628;2024-03-23T14:48:58;10.60;99.90
15131;DHT22;7666;50.920;4.628;2024-03-23T14:51:44;10.80;99.90
15131;DHT22;7666;50.920;4.628;2024-03-23T14:54:32;10.80;99.90
15131;DHT22;7666;50.920;4.628;2024-03-23T14:57:18;10.80;99.90
15131;DHT22;7666;50.920;4.628;2024-03-23T15:00:09;10.90;99.90
15131;DHT22;7666;50.920;4.628;2024-03-23T15:02:58;10.90;99.90
15131;DHT22;7666;50.920;4.628;2024-03-23T15:05:57;10.70;99.90
15131;DHT22;7666;50.920;4.628;2024-03-23T15:08:44;10.60;99.90
15131;DHT22;7666;50.920;4.628;2024-03-23T15:11:30;10.70;99.90
15131;DHT22;7666;50.920;4.628;2024-03-23T15:14:16;10.80;99.90
15131;DHT22;7666;50.920;4.628;2024-03-23T15:17:02;10.80;99.90
15131;DHT22;7666;50.920;4.628;2024-03-23T15:19:52;10.80;99.90
15131;DHT22;7666;50.920;4.628;2024-03-23T15:22:39;10.60;99.90
15131;DHT22;7666;50.920;4.628;2024-03-23T15:25:25;10.50;99.90
15131;DHT22;7666;50.920;4.628;2024-03-23T15:28:11;10.60;99.90
15131;DHT22;7666;50.920;4.628;2024-03-23T15:30:59;10.60;99.90
15131;DHT22;7666;50.920;4.628;2024-03-23T15:33:44;10.60;99.90
15131;DHT22;7666;50.920;4.628;2024-03-23T15:36:30;10.80;99.90
15131;DHT22;7666;50.920;4.628;2024-03-23T15:39:17;10.90;99.90
15131;DHT22;7666;50.920;4.628;2024-03-23T15:42:03;11.10;99.90
15131;DHT22;7666;50.920;4.628;2024-03-23T15:44:49;11.30;99.90
15131;DHT22;7666;50.920;4.628;2024-03-23T15:47:36;11.40;99.90
15131;DHT22;7666;50.920;4.628;2024-03-23T15:50:22;11.20;99.90
15131;DHT22;7666;50.920;4.628;2024-03-23T15:53:07;11.10;99.90
15131;DHT22;7666;50.920;4.628;2024-03-23T15:56:01;10.60;99.90
15131;DHT22;7666;50.920;4.628;2024-03-23T15:58:47;10.40;99.90
15131;DHT22;7666;50.920;4.628;2024-03-23T16:01:33;10.20;99.90
15131;DHT22;7666;50.920;4.628;2024-03-23T16:04:20;9.80;99.90
15131;DHT22;7666;50.920;4.628;2024-03-23T16:07:06;9.60;99.90
15131;DHT22;7666;50.920;4.628;2024-03-23T16:09:52;9.60;99.90
15131;DHT22;7666;50.920;4.628;2024-03-23T16:12:38;9.70;99.90
15131;DHT22;7666;50.920;4.628;2024-03-23T16:15:25;9.70;99.90
15131;DHT22;7666;50.920;4.628;2024-03-23T16:18:11;9.60;99.90
15131;DHT22;7666;50.920;4.628;2024-03-23T16:20:59;9.50;99.90
15131;DHT22;7666;50.920;4.628;2024-03-23T16:23:45;9.50;99.90
15131;DHT22;7666;50.920;4.628;2024-03-23T16:26:32;9.50;99.90
15131;DHT22;7666;50.920;4.628;2024-03-23T16:29:18;9.40;99.90
15131;DHT22;7666;50.920;4.628;2024-03-23T16:32:05;9.40;99.90
15131;DHT22;7666;50.920;4.628;2024-03-23T16:34:51;9.30;99.90
15131;DHT22;7666;50.920;4.628;2024-03-23T16:37:37;9.30;99.90
15131;DHT22;7666;50.920;4.628;2024-03-23T16:40:23;9.30;99.90
15131;DHT22;7666;50.920;4.628;2024-03-23T16:43:10;9.30;99.90
15131;DHT22;7666;50.920;4.628;2024-03-23T16:45:58;9.40;99.90
15131;DHT22;7666;50.920;4.628;2024-03-23T16:48:44;9.40;99.90
15131;DHT22;7666;50.920;4.628;2024-03-23T16:51:31;9.40;99.90
15131;DHT22;7666;50.920;4.628;2024-03-23T16:54:17;9.50;99.90
15131;DHT22;7666;50.920;4.628;2024-03-23T16:57:03;9.50;99.90
15131;DHT22;7666;50.920;4.628;2024-03-23T16:59:49;9.50;99.90
15131;DHT22;7666;50.920;4.628;2024-03-23T17:02:35;9.50;99.90
15131;DHT22;7666;50.920;4.628;2024-03-23T17:05:23;9.60;99.90
15131;DHT22;7666;50.920;4.628;2024-03-23T17:08:09;9.60;99.90
15131;DHT22;7666;50.920;4.628;2024-03-23T17:10:59;9.60;99.90
15131;DHT22;7666;50.920;4.628;2024-03-23T17:13:46;9.50;99.90
15131;DHT22;7666;50.920;4.628;2024-03-23T17:16:38;9.50;99.90
15131;DHT22;7666;50.920;4.628;2024-03-23T17:19:24;9.50;99.90
15131;DHT22;7666;50.920;4.628;2024-03-23T17:22:12;9.50;99.90
15131;DHT22;7666;50.920;4.628;2024-03-23T17:24:58;9.40;99.90
15131;DHT22;7666;50.920;4.628;2024-03-23T17:27:44;9.30;99.90
15131;DHT22;7666;50.920;4.628;2024-03-23T17:30:30;9.20;99.90
15131;DHT22;7666;50.920;4.628;2024-03-23T17:33:17;9.00;99.90
15131;DHT22;7666;50.920;4.628;2024-03-23T17:36:03;8.90;99.90
15131;DHT22;7666;50.920;4.628;2024-03-23T17:38:49;8.80;99.90
15131;DHT22;7666;50.920;4.628;2024-03-23T17:41:35;8.70;99.90
15131;DHT22;7666;50.920;4.628;2024-03-23T17:44:23;8.70;99.90
15131;DHT22;7666;50.920;4.628;2024-03-23T17:47:09;8.60;99.90
15131;DHT22;7666;50.920;4.628;2024-03-23T17:49:55;8.60;99.90
15131;DHT22;7666;50.920;4.628;2024-03-23T17:52:42;8.60;99.90
15131;DHT22;7666;50.920;4.628;2024-03-23T17:55:28;8.50;99.90
15131;DHT22;7666;50.920;4.628;2024-03-23T17:58:14;8.50;99.90
15131;DHT22;7666;50.920;4.628;2024-03-23T18:01:06;8.40;99.90
15131;DHT22;7666;50.920;4.628;2024-03-23T18:03:53;8.10;99.90
15131;DHT22;7666;50.920;4.628;2024-03-23T18:06:39;7.80;99.90
15131;DHT22;7666;50.920;4.628;2024-03-23T18:09:25;7.50;99.90
15131;DHT22;7666;50.920;4.628;2024-03-23T18:12:11;7.30;99.90
15131;DHT22;7666;50.920;4.628;2024-03-23T18:14:57;7.20;99.90
15131;DHT22;7666;50.920;4.628;2024-03-23T18:17:46;7.00;99.90
15131;DHT22;7666;50.920;4.628;2024-03-23T18:20:34;6.80;99.90
15131;DHT22;7666;50.920;4.628;2024-03-23T18:23:20;6.70;99.90
15131;DHT22;7666;50.920;4.628;2024-03-23T18:26:06;6.70;99.90
15131;DHT22;7666;50.920;4.628;2024-03-23T18:28:53;6.70;99.90
15131;DHT22;7666;50.920;4.628;2024-03-23T18:31:39;6.60;99.90
15131;DHT22;7666;50.920;4.628;2024-03-23T18:34:25;6.60;99.90
15131;DHT22;7666;50.920;4.628;2024-03-23T18:37:11;6.60;99.90
15131;DHT22;7666;50.920;4.628;2024-03-23T18:39:57;6.70;99.90
15131;DHT22;7666;50.920;4.628;2024-03-23T18:42:43;6.70;99.90
15131;DHT22;7666;50.920;4.628;2024-03-23T18:45:31;6.80;99.90
15131;DHT22;7666;50.920;4.628;2024-03-23T18:48:17;6.90;99.90
15131;DHT22;7666;50.920;4.628;2024-03-23T18:51:03;6.90;99.90
15131;DHT22;7666;50.920;4.628;2024-03-23T18:53:49;7.00;99.90
15131;DHT22;7666;50.920;4.628;2024-03-23T18:56:35;7.10;99.90
15131;DHT22;7666;50.920;4.628;2024-03-23T18:59:21;7.20;99.90